sensor_id;sensor_type;location;lat;lon;timestamp;P1;durP1;ratioP1;P2;durP2;ratioP2
34711;SDS011;20941;42.408;25.634;2023-04-03T00:01:44;1.17;;;0.98;;
34711;SDS011;20941;42.408;25.634;2023-04-03T00:04:10;2.42;;;1.20;;
34711;SDS011;20941;42.408;25.634;2023-04-03T00:06:35;1.42;;;0.80;;
34711;SDS011;20941;42.408;25.634;2023-04-03T00:09:01;0.70;;;0.65;;
34711;SDS011;20941;42.408;25.634;2023-04-03T00:11:26;2.28;;;0.80;;
34711;SDS011;20941;42.408;25.634;2023-04-03T00:13:51;1.05;;;0.63;;
34711;SDS011;20941;42.408;25.634;2023-04-03T00:16:17;0.90;;;0.90;;
34711;SDS011;20941;42.408;25.634;2023-04-03T00:18:43;0.60;;;0.60;;
34711;SDS011;20941;42.408;25.634;2023-04-03T00:21:09;0.70;;;0.70;;
34711;SDS011;20941;42.408;25.634;2023-04-03T00:23:35;1.20;;;0.60;;
34711;SDS011;20941;42.408;25.634;2023-04-03T00:26:00;1.52;;;1.42;;
34711;SDS011;20941;42.408;25.634;2023-04-03T00:28:26;2.70;;;2.08;;
34711;SDS011;20941;42.408;25.634;2023-04-03T00:30:51;2.72;;;1.80;;
34711;SDS011;20941;42.408;25.634;2023-04-03T00:33:17;1.95;;;1.80;;
34711;SDS011;20941;42.408;25.634;2023-04-03T00:35:42;4.15;;;1.92;;
34711;SDS011;20941;42.408;25.634;2023-04-03T00:38:08;4.72;;;2.30;;
34711;SDS011;20941;42.408;25.634;2023-04-03T00:40:37;2.35;;;2.05;;
34711;SDS011;20941;42.408;25.634;2023-04-03T00:43:05;5.75;;;2.10;;
34711;SDS011;20941;42.408;25.634;2023-04-03T00:45:36;2.05;;;1.95;;
34711;SDS011;20941;42.408;25.634;2023-04-03T00:48:03;2.42;;;2.15;;
34711;SDS011;20941;42.408;25.634;2023-04-03T00:50:30;2.80;;;2.05;;
34711;SDS011;20941;42.408;25.634;2023-04-03T00:52:57;4.47;;;2.45;;
34711;SDS011;20941;42.408;25.634;2023-04-03T00:55:22;3.97;;;2.40;;
34711;SDS011;20941;42.408;25.634;2023-04-03T00:57:48;4.25;;;2.28;;
34711;SDS011;20941;42.408;25.634;2023-04-03T01:00:17;2.50;;;1.85;;
34711;SDS011;20941;42.408;25.634;2023-04-03T01:02:43;2.65;;;1.75;;
34711;SDS011;20941;42.408;25.634;2023-04-03T01:05:10;2.03;;;1.88;;
34711;SDS011;20941;42.408;25.634;2023-04-03T01:07:35;3.58;;;1.65;;
34711;SDS011;20941;42.408;25.634;2023-04-03T01:10:05;5.65;;;2.00;;
34711;SDS011;20941;42.408;25.634;2023-04-03T01:12:32;2.15;;;1.60;;
34711;SDS011;20941;42.408;25.634;2023-04-03T01:15:05;2.13;;;1.60;;
34711;SDS011;20941;42.408;25.634;2023-04-03T01:20:17;1.77;;;1.60;;
34711;SDS011;20941;42.408;25.634;2023-04-03T01:25:14;2.67;;;2.25;;
34711;SDS011;20941;42.408;25.634;2023-04-03T01:27:39;2.80;;;2.22;;
34711;SDS011;20941;42.408;25.634;2023-04-03T01:30:05;2.72;;;2.15;;
34711;SDS011;20941;42.408;25.634;2023-04-03T01:32:31;5.28;;;2.70;;
34711;SDS011;20941;42.408;25.634;2023-04-03T01:34:57;7.97;;;2.92;;
34711;SDS011;20941;42.408;25.634;2023-04-03T01:37:22;3.47;;;2.88;;
34711;SDS011;20941;42.408;25.634;2023-04-03T01:39:47;6.35;;;2.75;;
34711;SDS011;20941;42.408;25.634;2023-04-03T01:42:13;4.15;;;2.45;;
34711;SDS011;20941;42.408;25.634;2023-04-03T01:44:38;2.75;;;2.30;;
34711;SDS011;20941;42.408;25.634;2023-04-03T01:47:05;7.40;;;2.20;;
34711;SDS011;20941;42.408;25.634;2023-04-03T01:49:30;6.13;;;2.00;;
34711;SDS011;20941;42.408;25.634;2023-04-03T01:51:56;1.63;;;1.48;;
34711;SDS011;20941;42.408;25.634;2023-04-03T01:54:21;1.40;;;1.15;;
34711;SDS011;20941;42.408;25.634;2023-04-03T01:56:46;1.38;;;1.20;;
34711;SDS011;20941;42.408;25.634;2023-04-03T01:59:12;1.40;;;1.30;;
34711;SDS011;20941;42.408;25.634;2023-04-03T02:01:37;2.55;;;1.55;;
34711;SDS011;20941;42.408;25.634;2023-04-03T02:04:02;1.75;;;1.40;;
34711;SDS011;20941;42.408;25.634;2023-04-03T02:06:28;2.20;;;1.63;;
34711;SDS011;20941;42.408;25.634;2023-04-03T02:08:53;4.30;;;1.70;;
34711;SDS011;20941;42.408;25.634;2023-04-03T02:11:18;1.73;;;1.55;;
34711;SDS011;20941;42.408;25.634;2023-04-03T02:13:45;9.30;;;3.40;;
34711;SDS011;20941;42.408;25.634;2023-04-03T02:16:10;6.35;;;2.58;;
34711;SDS011;20941;42.408;25.634;2023-04-03T02:18:37;5.47;;;2.60;;
34711;SDS011;20941;42.408;25.634;2023-04-03T02:21:02;4.03;;;2.05;;
34711;SDS011;20941;42.408;25.634;2023-04-03T02:23:27;7.47;;;4.82;;
34711;SDS011;20941;42.408;25.634;2023-04-03T02:25:53;17.40;;;9.73;;
34711;SDS011;20941;42.408;25.634;2023-04-03T02:28:21;7.38;;;3.72;;
34711;SDS011;20941;42.408;25.634;2023-04-03T02:30:46;2.45;;;2.20;;
34711;SDS011;20941;42.408;25.634;2023-04-03T02:33:11;7.85;;;3.97;;
34711;SDS011;20941;42.408;25.634;2023-04-03T02:35:37;11.20;;;7.28;;
34711;SDS011;20941;42.408;25.634;2023-04-03T02:38:03;8.77;;;4.43;;
34711;SDS011;20941;42.408;25.634;2023-04-03T02:40:29;5.10;;;4.57;;
34711;SDS011;20941;42.408;25.634;2023-04-03T02:42:54;4.38;;;3.42;;
34711;SDS011;20941;42.408;25.634;2023-04-03T02:45:19;9.45;;;4.85;;
34711;SDS011;20941;42.408;25.634;2023-04-03T02:47:45;11.88;;;7.13;;
34711;SDS011;20941;42.408;25.634;2023-04-03T02:50:10;23.17;;;15.02;;
34711;SDS011;20941;42.408;25.634;2023-04-03T02:52:35;14.02;;;7.35;;
34711;SDS011;20941;42.408;25.634;2023-04-03T02:55:01;11.93;;;4.60;;
34711;SDS011;20941;42.408;25.634;2023-04-03T02:57:26;12.98;;;5.35;;
34711;SDS011;20941;42.408;25.634;2023-04-03T02:59:51;16.95;;;9.73;;
34711;SDS011;20941;42.408;25.634;2023-04-03T03:02:17;8.70;;;4.28;;
34711;SDS011;20941;42.408;25.634;2023-04-03T03:04:42;6.72;;;2.97;;
34711;SDS011;20941;42.408;25.634;2023-04-03T03:07:08;3.85;;;2.28;;
34711;SDS011;20941;42.408;25.634;2023-04-03T03:09:33;7.05;;;2.70;;
34711;SDS011;20941;42.408;25.634;2023-04-03T03:11:59;6.78;;;3.70;;
34711;SDS011;20941;42.408;25.634;2023-04-03T03:14:24;12.80;;;3.40;;
34711;SDS011;20941;42.408;25.634;2023-04-03T03:16:49;18.67;;;3.88;;
34711;SDS011;20941;42.408;25.634;2023-04-03T03:19:15;7.53;;;3.67;;
34711;SDS011;20941;42.408;25.634;2023-04-03T03:21:41;5.20;;;3.88;;
34711;SDS011;20941;42.408;25.634;2023-04-03T03:24:06;14.18;;;4.07;;
34711;SDS011;20941;42.408;25.634;2023-04-03T03:26:31;9.07;;;4.43;;
34711;SDS011;20941;42.408;25.634;2023-04-03T03:28:57;12.27;;;3.92;;
34711;SDS011;20941;42.408;25.634;2023-04-03T03:31:22;5.43;;;3.47;;
34711;SDS011;20941;42.408;25.634;2023-04-03T03:33:47;9.90;;;3.53;;
34711;SDS011;20941;42.408;25.634;2023-04-03T03:36:13;16.88;;;4.53;;
34711;SDS011;20941;42.408;25.634;2023-04-03T03:38:38;12.75;;;3.47;;
34711;SDS011;20941;42.408;25.634;2023-04-03T03:41:04;9.15;;;3.72;;
34711;SDS011;20941;42.408;25.634;2023-04-03T03:43:29;20.48;;;4.55;;
34711;SDS011;20941;42.408;25.634;2023-04-03T03:45:55;26.27;;;4.65;;
34711;SDS011;20941;42.408;25.634;2023-04-03T03:48:20;27.45;;;5.18;;
34711;SDS011;20941;42.408;25.634;2023-04-03T03:50:46;10.30;;;4.10;;
34711;SDS011;20941;42.408;25.634;2023-04-03T03:53:11;8.60;;;2.90;;
34711;SDS011;20941;42.408;25.634;2023-04-03T03:55:37;13.57;;;4.30;;
34711;SDS011;20941;42.408;25.634;2023-04-03T03:58:02;53.08;;;12.25;;
34711;SDS011;20941;42.408;25.634;2023-04-03T04:00:28;21.52;;;5.88;;
34711;SDS011;20941;42.408;25.634;2023-04-03T04:02:57;141.00;;;29.50;;
34711;SDS011;20941;42.408;25.634;2023-04-03T04:05:22;181.05;;;37.22;;
34711;SDS011;20941;42.408;25.634;2023-04-03T04:07:48;89.72;;;19.25;;
34711;SDS011;20941;42.408;25.634;2023-04-03T04:10:16;76.90;;;15.90;;
34711;SDS011;20941;42.408;25.634;2023-04-03T04:12:41;33.88;;;9.77;;
34711;SDS011;20941;42.408;25.634;2023-04-03T04:15:07;99.75;;;21.60;;
34711;SDS011;20941;42.408;25.634;2023-04-03T04:17:32;104.95;;;24.00;;
34711;SDS011;20941;42.408;25.634;2023-04-03T04:19:59;77.43;;;17.88;;
34711;SDS011;20941;42.408;25.634;2023-04-03T04:22:24;57.90;;;17.52;;
34711;SDS011;20941;42.408;25.634;2023-04-03T04:24:50;43.78;;;11.85;;
34711;SDS011;20941;42.408;25.634;2023-04-03T04:27:15;40.85;;;10.43;;
34711;SDS011;20941;42.408;25.634;2023-04-03T04:29:41;16.23;;;6.65;;
34711;SDS011;20941;42.408;25.634;2023-04-03T04:32:06;11.80;;;5.63;;
34711;SDS011;20941;42.408;25.634;2023-04-03T04:34:31;18.20;;;6.15;;
34711;SDS011;20941;42.408;25.634;2023-04-03T04:36:57;17.42;;;6.65;;
34711;SDS011;20941;42.408;25.634;2023-04-03T04:39:22;27.08;;;7.38;;
34711;SDS011;20941;42.408;25.634;2023-04-03T04:41:47;32.15;;;7.75;;
34711;SDS011;20941;42.408;25.634;2023-04-03T04:44:13;25.58;;;7.00;;
34711;SDS011;20941;42.408;25.634;2023-04-03T04:46:38;25.73;;;7.18;;
34711;SDS011;20941;42.408;25.634;2023-04-03T04:49:03;25.15;;;6.88;;
34711;SDS011;20941;42.408;25.634;2023-04-03T04:51:29;21.65;;;6.97;;
34711;SDS011;20941;42.408;25.634;2023-04-03T04:53:54;19.00;;;5.55;;
34711;SDS011;20941;42.408;25.634;2023-04-03T04:56:20;19.70;;;5.90;;
34711;SDS011;20941;42.408;25.634;2023-04-03T04:58:45;24.75;;;6.53;;
34711;SDS011;20941;42.408;25.634;2023-04-03T05:01:11;18.42;;;5.72;;
34711;SDS011;20941;42.408;25.634;2023-04-03T05:03:36;20.20;;;5.47;;
34711;SDS011;20941;42.408;25.634;2023-04-03T05:06:02;19.02;;;6.75;;
34711;SDS011;20941;42.408;25.634;2023-04-03T05:08:27;22.92;;;5.97;;
34711;SDS011;20941;42.408;25.634;2023-04-03T05:10:53;24.75;;;6.80;;
34711;SDS011;20941;42.408;25.634;2023-04-03T05:13:18;14.32;;;5.55;;
34711;SDS011;20941;42.408;25.634;2023-04-03T05:15:44;14.77;;;5.88;;
34711;SDS011;20941;42.408;25.634;2023-04-03T05:18:10;22.10;;;6.30;;
34711;SDS011;20941;42.408;25.634;2023-04-03T05:20:35;31.02;;;7.60;;
34711;SDS011;20941;42.408;25.634;2023-04-03T05:23:02;47.75;;;10.32;;
34711;SDS011;20941;42.408;25.634;2023-04-03T05:25:27;92.63;;;18.05;;
34711;SDS011;20941;42.408;25.634;2023-04-03T05:27:52;97.03;;;17.50;;
34711;SDS011;20941;42.408;25.634;2023-04-03T05:30:18;87.97;;;17.60;;
34711;SDS011;20941;42.408;25.634;2023-04-03T05:32:43;62.45;;;12.10;;
34711;SDS011;20941;42.408;25.634;2023-04-03T05:35:09;37.30;;;9.75;;
34711;SDS011;20941;42.408;25.634;2023-04-03T05:37:35;67.45;;;15.57;;
34711;SDS011;20941;42.408;25.634;2023-04-03T05:40:00;64.30;;;15.20;;
34711;SDS011;20941;42.408;25.634;2023-04-03T05:42:26;63.03;;;13.90;;
34711;SDS011;20941;42.408;25.634;2023-04-03T05:44:51;54.70;;;13.65;;
34711;SDS011;20941;42.408;25.634;2023-04-03T05:47:17;51.08;;;14.18;;
34711;SDS011;20941;42.408;25.634;2023-04-03T05:49:42;48.83;;;12.15;;
34711;SDS011;20941;42.408;25.634;2023-04-03T05:52:23;49.35;;;14.30;;
34711;SDS011;20941;42.408;25.634;2023-04-03T05:54:51;49.25;;;18.33;;
34711;SDS011;20941;42.408;25.634;2023-04-03T05:57:17;67.15;;;17.02;;
34711;SDS011;20941;42.408;25.634;2023-04-03T05:59:43;41.47;;;10.02;;
34711;SDS011;20941;42.408;25.634;2023-04-03T06:02:16;44.88;;;11.57;;
34711;SDS011;20941;42.408;25.634;2023-04-03T06:04:41;47.25;;;15.75;;
34711;SDS011;20941;42.408;25.634;2023-04-03T06:07:09;48.20;;;16.13;;
34711;SDS011;20941;42.408;25.634;2023-04-03T06:09:36;41.72;;;13.45;;
34711;SDS011;20941;42.408;25.634;2023-04-03T06:12:01;46.30;;;14.27;;
34711;SDS011;20941;42.408;25.634;2023-04-03T06:14:27;55.70;;;13.73;;
34711;SDS011;20941;42.408;25.634;2023-04-03T06:16:52;29.95;;;11.55;;
34711;SDS011;20941;42.408;25.634;2023-04-03T06:19:19;42.25;;;10.52;;
34711;SDS011;20941;42.408;25.634;2023-04-03T06:21:45;39.80;;;10.10;;
34711;SDS011;20941;42.408;25.634;2023-04-03T06:24:12;40.55;;;10.18;;
34711;SDS011;20941;42.408;25.634;2023-04-03T06:26:38;27.52;;;9.63;;
34711;SDS011;20941;42.408;25.634;2023-04-03T06:29:04;33.63;;;10.70;;
34711;SDS011;20941;42.408;25.634;2023-04-03T06:31:29;33.47;;;9.60;;
34711;SDS011;20941;42.408;25.634;2023-04-03T06:33:55;28.48;;;10.07;;
34711;SDS011;20941;42.408;25.634;2023-04-03T06:36:21;28.05;;;9.57;;
34711;SDS011;20941;42.408;25.634;2023-04-03T06:38:47;26.83;;;7.65;;
34711;SDS011;20941;42.408;25.634;2023-04-03T06:41:12;14.30;;;5.82;;
34711;SDS011;20941;42.408;25.634;2023-04-03T06:43:38;6.65;;;3.95;;
34711;SDS011;20941;42.408;25.634;2023-04-03T06:46:03;9.65;;;3.70;;
34711;SDS011;20941;42.408;25.634;2023-04-03T06:48:28;8.95;;;3.85;;
34711;SDS011;20941;42.408;25.634;2023-04-03T06:50:54;11.30;;;3.67;;
34711;SDS011;20941;42.408;25.634;2023-04-03T06:53:20;7.57;;;3.83;;
34711;SDS011;20941;42.408;25.634;2023-04-03T06:55:46;10.32;;;4.18;;
34711;SDS011;20941;42.408;25.634;2023-04-03T06:58:12;15.10;;;6.93;;
34711;SDS011;20941;42.408;25.634;2023-04-03T07:00:38;9.23;;;3.40;;
34711;SDS011;20941;42.408;25.634;2023-04-03T07:03:04;8.93;;;3.65;;
34711;SDS011;20941;42.408;25.634;2023-04-03T07:05:29;8.88;;;3.10;;
34711;SDS011;20941;42.408;25.634;2023-04-03T07:07:55;12.10;;;4.60;;
34711;SDS011;20941;42.408;25.634;2023-04-03T07:10:21;9.80;;;4.40;;
34711;SDS011;20941;42.408;25.634;2023-04-03T07:12:46;6.20;;;4.35;;
34711;SDS011;20941;42.408;25.634;2023-04-03T07:15:11;16.25;;;3.75;;
34711;SDS011;20941;42.408;25.634;2023-04-03T07:17:38;7.57;;;3.85;;
34711;SDS011;20941;42.408;25.634;2023-04-03T07:20:03;9.07;;;4.65;;
34711;SDS011;20941;42.408;25.634;2023-04-03T07:22:29;14.18;;;5.72;;
34711;SDS011;20941;42.408;25.634;2023-04-03T07:24:54;9.82;;;5.15;;
34711;SDS011;20941;42.408;25.634;2023-04-03T07:27:20;13.50;;;4.60;;
34711;SDS011;20941;42.408;25.634;2023-04-03T07:29:45;15.57;;;4.22;;
34711;SDS011;20941;42.408;25.634;2023-04-03T07:32:12;13.70;;;5.13;;
34711;SDS011;20941;42.408;25.634;2023-04-03T07:34:37;12.68;;;4.80;;
34711;SDS011;20941;42.408;25.634;2023-04-03T07:37:03;14.65;;;4.60;;
34711;SDS011;20941;42.408;25.634;2023-04-03T07:39:29;8.50;;;3.70;;
34711;SDS011;20941;42.408;25.634;2023-04-03T07:41:55;8.23;;;3.10;;
34711;SDS011;20941;42.408;25.634;2023-04-03T07:44:23;9.23;;;3.47;;
34711;SDS011;20941;42.408;25.634;2023-04-03T07:46:49;11.98;;;3.33;;
34711;SDS011;20941;42.408;25.634;2023-04-03T07:49:15;21.25;;;5.65;;
34711;SDS011;20941;42.408;25.634;2023-04-03T07:51:43;15.30;;;4.30;;
34711;SDS011;20941;42.408;25.634;2023-04-03T07:54:08;12.00;;;4.38;;
34711;SDS011;20941;42.408;25.634;2023-04-03T07:56:33;8.10;;;3.30;;
34711;SDS011;20941;42.408;25.634;2023-04-03T07:58:59;14.45;;;3.63;;
34711;SDS011;20941;42.408;25.634;2023-04-03T08:01:25;24.33;;;4.80;;
34711;SDS011;20941;42.408;25.634;2023-04-03T08:03:50;11.68;;;3.47;;
34711;SDS011;20941;42.408;25.634;2023-04-03T08:06:16;11.38;;;4.18;;
34711;SDS011;20941;42.408;25.634;2023-04-03T08:08:41;13.15;;;3.60;;
34711;SDS011;20941;42.408;25.634;2023-04-03T08:11:07;6.90;;;3.10;;
34711;SDS011;20941;42.408;25.634;2023-04-03T08:13:33;14.88;;;3.70;;
34711;SDS011;20941;42.408;25.634;2023-04-03T08:16:07;7.22;;;3.00;;
34711;SDS011;20941;42.408;25.634;2023-04-03T08:18:32;7.00;;;3.28;;
34711;SDS011;20941;42.408;25.634;2023-04-03T08:20:57;11.52;;;3.50;;
34711;SDS011;20941;42.408;25.634;2023-04-03T08:23:23;10.75;;;2.90;;
34711;SDS011;20941;42.408;25.634;2023-04-03T08:25:48;7.18;;;2.75;;
34711;SDS011;20941;42.408;25.634;2023-04-03T08:28:13;13.18;;;2.42;;
34711;SDS011;20941;42.408;25.634;2023-04-03T08:30:40;2.60;;;2.00;;
34711;SDS011;20941;42.408;25.634;2023-04-03T08:33:06;7.50;;;1.88;;
34711;SDS011;20941;42.408;25.634;2023-04-03T08:35:32;8.93;;;2.30;;
34711;SDS011;20941;42.408;25.634;2023-04-03T08:37:57;6.68;;;2.20;;
34711;SDS011;20941;42.408;25.634;2023-04-03T08:40:23;3.80;;;1.92;;
34711;SDS011;20941;42.408;25.634;2023-04-03T08:45:50;3.60;;;1.40;;
34711;SDS011;20941;42.408;25.634;2023-04-03T08:48:20;3.22;;;1.35;;
34711;SDS011;20941;42.408;25.634;2023-04-03T08:50:47;4.05;;;1.75;;
34711;SDS011;20941;42.408;25.634;2023-04-03T08:53:18;7.72;;;1.95;;
34711;SDS011;20941;42.408;25.634;2023-04-03T08:55:48;2.60;;;1.30;;
34711;SDS011;20941;42.408;25.634;2023-04-03T09:03:14;3.38;;;1.10;;
34711;SDS011;20941;42.408;25.634;2023-04-03T09:05:48;2.90;;;1.10;;
34711;SDS011;20941;42.408;25.634;2023-04-03T09:10:43;4.60;;;1.42;;
34711;SDS011;20941;42.408;25.634;2023-04-03T09:13:27;7.22;;;2.10;;
34711;SDS011;20941;42.408;25.634;2023-04-03T09:15:56;5.13;;;1.05;;
34711;SDS011;20941;42.408;25.634;2023-04-03T09:18:40;2.05;;;0.85;;
34711;SDS011;20941;42.408;25.634;2023-04-03T09:26:02;3.30;;;1.25;;
34711;SDS011;20941;42.408;25.634;2023-04-03T09:28:31;3.25;;;1.08;;
34711;SDS011;20941;42.408;25.634;2023-04-03T09:30:56;2.28;;;1.25;;
34711;SDS011;20941;42.408;25.634;2023-04-03T09:33:22;2.83;;;1.15;;
34711;SDS011;20941;42.408;25.634;2023-04-03T09:35:47;1.92;;;0.90;;
34711;SDS011;20941;42.408;25.634;2023-04-03T09:40:42;4.15;;;1.90;;
34711;SDS011;20941;42.408;25.634;2023-04-03T09:45:45;3.78;;;1.40;;
34711;SDS011;20941;42.408;25.634;2023-04-03T09:55:54;5.10;;;1.60;;
34711;SDS011;20941;42.408;25.634;2023-04-03T09:58:27;1.33;;;1.10;;
34711;SDS011;20941;42.408;25.634;2023-04-03T10:00:58;4.00;;;1.60;;
34711;SDS011;20941;42.408;25.634;2023-04-03T10:03:31;6.65;;;1.95;;
34711;SDS011;20941;42.408;25.634;2023-04-03T10:05:57;4.85;;;1.92;;
34711;SDS011;20941;42.408;25.634;2023-04-03T10:08:33;6.32;;;2.30;;
34711;SDS011;20941;42.408;25.634;2023-04-03T10:11:15;2.67;;;1.58;;
34711;SDS011;20941;42.408;25.634;2023-04-03T10:16:17;1.70;;;0.95;;
34711;SDS011;20941;42.408;25.634;2023-04-03T10:18:49;3.70;;;1.42;;
34711;SDS011;20941;42.408;25.634;2023-04-03T10:24:16;10.23;;;1.75;;
34711;SDS011;20941;42.408;25.634;2023-04-03T10:31:48;6.00;;;1.50;;
34711;SDS011;20941;42.408;25.634;2023-04-03T10:41:57;3.75;;;1.13;;
34711;SDS011;20941;42.408;25.634;2023-04-03T10:44:30;5.05;;;1.63;;
34711;SDS011;20941;42.408;25.634;2023-04-03T10:47:02;5.88;;;1.63;;
34711;SDS011;20941;42.408;25.634;2023-04-03T10:52:02;9.93;;;2.67;;
34711;SDS011;20941;42.408;25.634;2023-04-03T10:56:57;2.90;;;1.60;;
34711;SDS011;20941;42.408;25.634;2023-04-03T10:59:33;7.38;;;1.60;;
34711;SDS011;20941;42.408;25.634;2023-04-03T11:02:01;7.90;;;1.95;;
34711;SDS011;20941;42.408;25.634;2023-04-03T11:04:30;8.27;;;2.17;;
34711;SDS011;20941;42.408;25.634;2023-04-03T11:09:39;6.38;;;2.30;;
34711;SDS011;20941;42.408;25.634;2023-04-03T11:12:28;5.78;;;1.90;;
34711;SDS011;20941;42.408;25.634;2023-04-03T11:14:51;4.45;;;2.20;;
34711;SDS011;20941;42.408;25.634;2023-04-03T11:27:45;9.30;;;4.03;;
34711;SDS011;20941;42.408;25.634;2023-04-03T11:30:16;10.23;;;5.53;;
34711;SDS011;20941;42.408;25.634;2023-04-03T11:35:27;7.15;;;4.72;;
34711;SDS011;20941;42.408;25.634;2023-04-03T11:37:53;12.18;;;4.25;;
34711;SDS011;20941;42.408;25.634;2023-04-03T11:42:48;10.90;;;4.43;;
34711;SDS011;20941;42.408;25.634;2023-04-03T11:47:59;17.70;;;4.32;;
34711;SDS011;20941;42.408;25.634;2023-04-03T12:08:26;9.27;;;4.80;;
34711;SDS011;20941;42.408;25.634;2023-04-03T12:16:20;15.13;;;5.25;;
34711;SDS011;20941;42.408;25.634;2023-04-03T12:21:16;12.95;;;5.40;;
34711;SDS011;20941;42.408;25.634;2023-04-03T12:23:58;13.40;;;6.03;;
34711;SDS011;20941;42.408;25.634;2023-04-03T12:28:56;11.30;;;5.82;;
34711;SDS011;20941;42.408;25.634;2023-04-03T12:31:22;13.27;;;6.60;;
34711;SDS011;20941;42.408;25.634;2023-04-03T12:34:04;14.75;;;6.30;;
34711;SDS011;20941;42.408;25.634;2023-04-03T12:36:42;13.77;;;6.30;;
34711;SDS011;20941;42.408;25.634;2023-04-03T12:39:13;17.02;;;7.35;;
34711;SDS011;20941;42.408;25.634;2023-04-03T12:44:59;15.02;;;8.13;;
34711;SDS011;20941;42.408;25.634;2023-04-03T12:47:22;10.80;;;6.97;;
34711;SDS011;20941;42.408;25.634;2023-04-03T12:49:49;22.05;;;9.10;;
34711;SDS011;20941;42.408;25.634;2023-04-03T12:52:50;21.58;;;9.38;;
34711;SDS011;20941;42.408;25.634;2023-04-03T12:55:08;24.73;;;12.27;;
34711;SDS011;20941;42.408;25.634;2023-04-03T12:57:35;18.17;;;9.18;;
34711;SDS011;20941;42.408;25.634;2023-04-03T13:00:18;19.17;;;9.30;;
34711;SDS011;20941;42.408;25.634;2023-04-03T13:02:43;14.60;;;6.90;;
34711;SDS011;20941;42.408;25.634;2023-04-03T13:05:13;21.20;;;8.00;;
34711;SDS011;20941;42.408;25.634;2023-04-03T13:07:39;18.55;;;8.32;;
34711;SDS011;20941;42.408;25.634;2023-04-03T13:13:19;18.38;;;8.57;;
34711;SDS011;20941;42.408;25.634;2023-04-03T13:15:30;18.83;;;9.40;;
34711;SDS011;20941;42.408;25.634;2023-04-03T13:17:57;16.80;;;9.20;;
34711;SDS011;20941;42.408;25.634;2023-04-03T13:25:19;13.82;;;7.90;;
34711;SDS011;20941;42.408;25.634;2023-04-03T13:27:45;16.52;;;8.88;;
34711;SDS011;20941;42.408;25.634;2023-04-03T13:30:53;16.92;;;8.30;;
34711;SDS011;20941;42.408;25.634;2023-04-03T13:33:04;17.63;;;8.40;;
34711;SDS011;20941;42.408;25.634;2023-04-03T13:38:00;18.75;;;9.32;;
34711;SDS011;20941;42.408;25.634;2023-04-03T13:40:26;17.88;;;9.38;;
34711;SDS011;20941;42.408;25.634;2023-04-03T13:43:16;17.08;;;8.55;;
34711;SDS011;20941;42.408;25.634;2023-04-03T13:45:53;17.15;;;9.38;;
34711;SDS011;20941;42.408;25.634;2023-04-03T13:48:19;16.88;;;8.35;;
34711;SDS011;20941;42.408;25.634;2023-04-03T13:53:16;15.90;;;8.30;;
34711;SDS011;20941;42.408;25.634;2023-04-03T13:55:55;16.90;;;7.50;;
34711;SDS011;20941;42.408;25.634;2023-04-03T13:58:23;13.13;;;6.70;;
34711;SDS011;20941;42.408;25.634;2023-04-03T14:00:51;14.82;;;6.75;;
34711;SDS011;20941;42.408;25.634;2023-04-03T14:05:45;15.98;;;7.28;;
34711;SDS011;20941;42.408;25.634;2023-04-03T14:08:10;19.42;;;7.80;;
34711;SDS011;20941;42.408;25.634;2023-04-03T14:10:36;15.48;;;6.70;;
34711;SDS011;20941;42.408;25.634;2023-04-03T14:13:02;13.10;;;6.43;;
34711;SDS011;20941;42.408;25.634;2023-04-03T14:15:28;11.93;;;7.40;;
34711;SDS011;20941;42.408;25.634;2023-04-03T14:17:55;8.57;;;5.15;;
34711;SDS011;20941;42.408;25.634;2023-04-03T14:20:22;15.52;;;6.35;;
34711;SDS011;20941;42.408;25.634;2023-04-03T14:22:47;13.60;;;6.95;;
34711;SDS011;20941;42.408;25.634;2023-04-03T14:25:14;12.40;;;6.20;;
34711;SDS011;20941;42.408;25.634;2023-04-03T14:27:41;14.18;;;6.20;;
34711;SDS011;20941;42.408;25.634;2023-04-03T14:30:08;18.35;;;6.53;;
34711;SDS011;20941;42.408;25.634;2023-04-03T14:32:34;16.38;;;6.30;;
34711;SDS011;20941;42.408;25.634;2023-04-03T14:34:59;13.85;;;6.13;;
34711;SDS011;20941;42.408;25.634;2023-04-03T14:37:26;14.75;;;6.53;;
34711;SDS011;20941;42.408;25.634;2023-04-03T14:39:53;17.35;;;7.28;;
34711;SDS011;20941;42.408;25.634;2023-04-03T14:42:20;15.65;;;7.43;;
34711;SDS011;20941;42.408;25.634;2023-04-03T14:44:46;15.45;;;8.15;;
34711;SDS011;20941;42.408;25.634;2023-04-03T14:47:12;18.52;;;7.20;;
34711;SDS011;20941;42.408;25.634;2023-04-03T14:49:39;17.00;;;7.75;;
34711;SDS011;20941;42.408;25.634;2023-04-03T14:52:04;12.65;;;7.57;;
34711;SDS011;20941;42.408;25.634;2023-04-03T14:54:30;11.98;;;6.32;;
34711;SDS011;20941;42.408;25.634;2023-04-03T14:56:57;16.02;;;6.78;;
34711;SDS011;20941;42.408;25.634;2023-04-03T14:59:22;12.70;;;5.30;;
34711;SDS011;20941;42.408;25.634;2023-04-03T15:01:48;4.90;;;3.17;;
34711;SDS011;20941;42.408;25.634;2023-04-03T15:04:14;7.65;;;3.40;;
34711;SDS011;20941;42.408;25.634;2023-04-03T15:06:40;7.50;;;4.63;;
34711;SDS011;20941;42.408;25.634;2023-04-03T15:09:09;13.20;;;5.95;;
34711;SDS011;20941;42.408;25.634;2023-04-03T15:11:36;10.88;;;5.63;;
34711;SDS011;20941;42.408;25.634;2023-04-03T15:14:01;12.43;;;6.22;;
34711;SDS011;20941;42.408;25.634;2023-04-03T15:16:27;12.00;;;5.75;;
34711;SDS011;20941;42.408;25.634;2023-04-03T15:18:53;10.85;;;5.55;;
34711;SDS011;20941;42.408;25.634;2023-04-03T15:21:18;10.90;;;5.43;;
34711;SDS011;20941;42.408;25.634;2023-04-03T15:23:43;8.80;;;4.45;;
34711;SDS011;20941;42.408;25.634;2023-04-03T15:26:09;8.02;;;4.65;;
34711;SDS011;20941;42.408;25.634;2023-04-03T15:28:35;6.53;;;4.03;;
34711;SDS011;20941;42.408;25.634;2023-04-03T15:31:01;5.28;;;3.47;;
34711;SDS011;20941;42.408;25.634;2023-04-03T15:33:27;7.85;;;3.80;;
34711;SDS011;20941;42.408;25.634;2023-04-03T15:35:53;6.38;;;3.65;;
34711;SDS011;20941;42.408;25.634;2023-04-03T15:38:18;6.50;;;2.72;;
34711;SDS011;20941;42.408;25.634;2023-04-03T15:40:44;7.88;;;3.05;;
34711;SDS011;20941;42.408;25.634;2023-04-03T15:43:12;6.15;;;3.05;;
34711;SDS011;20941;42.408;25.634;2023-04-03T15:45:37;2.60;;;2.40;;
34711;SDS011;20941;42.408;25.634;2023-04-03T15:48:03;4.75;;;2.95;;
34711;SDS011;20941;42.408;25.634;2023-04-03T15:50:29;2.72;;;2.40;;
34711;SDS011;20941;42.408;25.634;2023-04-03T15:52:55;5.95;;;2.50;;
34711;SDS011;20941;42.408;25.634;2023-04-03T15:55:24;4.18;;;2.30;;
34711;SDS011;20941;42.408;25.634;2023-04-03T15:57:50;4.80;;;2.30;;
34711;SDS011;20941;42.408;25.634;2023-04-03T16:00:16;4.30;;;2.13;;
34711;SDS011;20941;42.408;25.634;2023-04-03T16:02:42;2.75;;;2.25;;
34711;SDS011;20941;42.408;25.634;2023-04-03T16:05:08;3.53;;;3.10;;
34711;SDS011;20941;42.408;25.634;2023-04-03T16:07:34;4.63;;;2.47;;
34711;SDS011;20941;42.408;25.634;2023-04-03T16:09:59;2.67;;;2.33;;
34711;SDS011;20941;42.408;25.634;2023-04-03T16:12:25;2.97;;;2.33;;
34711;SDS011;20941;42.408;25.634;2023-04-03T16:14:50;5.38;;;2.38;;
34711;SDS011;20941;42.408;25.634;2023-04-03T16:17:16;3.45;;;2.60;;
34711;SDS011;20941;42.408;25.634;2023-04-03T16:19:42;5.47;;;3.60;;
34711;SDS011;20941;42.408;25.634;2023-04-03T16:22:07;7.25;;;3.80;;
34711;SDS011;20941;42.408;25.634;2023-04-03T16:24:33;5.00;;;3.75;;
34711;SDS011;20941;42.408;25.634;2023-04-03T16:26:58;5.93;;;3.70;;
34711;SDS011;20941;42.408;25.634;2023-04-03T16:29:23;6.35;;;3.97;;